createdAt,value
2024-04-13T00:07:18.699Z,99.90
2024-04-13T00:09:45.535Z,99.90
2024-04-13T00:14:39.587Z,99.90
2024-04-13T00:24:33.592Z,99.90
2024-04-13T00:27:00.820Z,99.90
2024-04-13T00:34:22.389Z,99.90
2024-04-13T00:46:43.689Z,99.90
2024-04-13T00:49:15.597Z,99.90
2024-04-13T00:51:45.493Z,99.90
2024-04-13T00:54:15.669Z,99.90
2024-04-13T00:56:48.348Z,99.90
2024-04-13T00:59:16.642Z,99.90
2024-04-13T01:09:08.391Z,99.90
2024-04-13T01:14:09.156Z,99.90
2024-04-13T01:19:06.082Z,99.90
2024-04-13T01:24:05.588Z,99.90
2024-04-13T01:26:39.653Z,99.90
2024-04-13T01:31:39.309Z,99.90
2024-04-13T01:34:06.943Z,99.90
2024-04-13T01:36:40.625Z,99.90
2024-04-13T01:39:13.025Z,99.90
2024-04-13T01:41:42.928Z,99.90
2024-04-13T01:51:33.900Z,99.90
2024-04-13T02:06:19.516Z,99.90
2024-04-13T02:21:07.240Z,99.90
2024-04-13T02:23:34.217Z,99.90
2024-04-13T02:26:01.806Z,99.90
2024-04-13T02:36:05.325Z,99.90
2024-04-13T02:38:36.050Z,99.90
2024-04-13T02:41:05.184Z,99.90
2024-04-13T02:43:32.845Z,99.90
2024-04-13T02:46:09.391Z,99.90
2024-04-13T02:48:42.036Z,99.90
2024-04-13T02:53:38.672Z,99.90
2024-04-13T02:56:06.805Z,99.90
2024-04-13T03:01:02.452Z,99.90
2024-04-13T03:06:01.536Z,99.90
2024-04-13T03:11:00.340Z,99.90
2024-04-13T03:16:08.770Z,99.90
2024-04-13T03:18:41.030Z,99.90
2024-04-13T03:23:37.710Z,99.90
2024-04-13T03:26:05.106Z,99.90
2024-04-13T03:28:34.919Z,99.90
2024-04-13T03:31:02.609Z,99.90
2024-04-13T03:36:01.432Z,99.90
2024-04-13T03:41:07.265Z,99.90
2024-04-13T03:43:35.420Z,99.90
2024-04-13T03:46:02.231Z,99.90
2024-04-13T03:53:24.012Z,99.90
2024-04-13T04:13:03.929Z,99.90
2024-04-13T04:22:54.046Z,99.90
2024-04-13T04:25:21.598Z,99.90
2024-04-13T04:30:16.536Z,99.90
2024-04-13T04:35:14.193Z,99.90
2024-04-13T04:45:09.563Z,99.90
2024-04-13T04:50:07.315Z,99.90
2024-04-13T05:09:48.351Z,99.90
2024-04-13T05:19:39.862Z,99.90
2024-04-13T05:27:07.874Z,99.90
2024-04-13T05:32:05.715Z,99.90
2024-04-13T05:39:30.512Z,99.90
2024-04-13T05:51:49.656Z,99.90
2024-04-13T05:56:44.188Z,99.90
2024-04-13T06:01:39.228Z,99.90
2024-04-13T06:04:06.116Z,99.90
2024-04-13T06:58:10.491Z,99.90
2024-04-13T07:03:05.873Z,99.90
2024-04-13T07:30:09.659Z,99.90
2024-04-13T07:42:28.102Z,99.90
2024-04-13T07:49:50.095Z,99.90
2024-04-13T08:07:05.159Z,99.90
2024-04-13T08:26:43.564Z,99.90
2024-04-13T08:31:39.797Z,99.90
2024-04-13T08:42:04.807Z,99.90
2024-04-13T08:44:32.788Z,99.90
2024-04-13T08:47:01.496Z,99.90
2024-04-13T08:49:32.557Z,99.90
2024-04-13T08:52:00.860Z,99.90
2024-04-13T08:57:01.942Z,99.90
2024-04-13T08:59:29.747Z,99.90
2024-04-13T09:01:57.744Z,99.90
2024-04-13T09:06:52.527Z,99.90
2024-04-13T09:19:10.686Z,99.90
2024-04-13T09:21:40.989Z,99.90
2024-04-13T09:24:08.590Z,99.90
2024-04-13T09:26:43.038Z,99.90
2024-04-13T09:29:10.030Z,99.90
2024-04-13T09:31:44.370Z,99.90
2024-04-13T09:34:21.194Z,99.90
2024-04-13T09:36:48.722Z,99.90
2024-04-13T09:39:22.982Z,99.90
2024-04-13T09:41:50.438Z,99.90
2024-04-13T09:44:30.093Z,99.90
2024-04-13T09:46:57.769Z,99.90
2024-04-13T09:49:24.693Z,99.90
2024-04-13T09:51:52.077Z,99.90
2024-04-13T09:54:19.728Z,99.90
2024-04-13T09:56:47.647Z,99.90
2024-04-13T09:59:15.039Z,99.90
2024-04-13T10:04:09.638Z,99.90
2024-04-13T10:06:38.882Z,99.90
2024-04-13T10:09:08.421Z,99.90
2024-04-13T10:11:39.742Z,99.90
2024-04-13T10:14:08.562Z,99.90
2024-04-13T10:16:35.955Z,99.90
2024-04-13T10:19:02.964Z,99.90
2024-04-13T10:21:35.668Z,99.90
2024-04-13T10:24:02.638Z,99.90
2024-04-13T10:26:30.363Z,99.90
2024-04-13T10:29:04.020Z,99.90
2024-04-13T10:31:34.277Z,99.90
2024-04-13T10:34:01.460Z,99.90
2024-04-13T10:36:38.861Z,99.90
2024-04-13T10:39:06.779Z,99.90
2024-04-13T10:41:38.335Z,99.90
2024-04-13T10:44:07.293Z,99.90
2024-04-13T10:46:34.916Z,99.90
2024-04-13T10:49:03.288Z,99.90
2024-04-13T10:51:30.302Z,99.90
2024-04-13T10:53:57.160Z,99.90
2024-04-13T10:56:23.961Z,99.90
2024-04-13T10:58:51.490Z,99.90
2024-04-13T11:01:20.137Z,99.90
2024-04-13T11:03:47.380Z,99.90
2024-04-13T11:06:14.538Z,99.60
2024-04-13T11:08:41.545Z,99.90
2024-04-13T11:11:12.169Z,99.90
2024-04-13T11:13:39.105Z,99.90
2024-04-13T11:16:07.268Z,99.50
2024-04-13T11:18:34.821Z,99.80
2024-04-13T11:21:06.984Z,99.90
2024-04-13T11:23:35.687Z,99.30
2024-04-13T11:26:03.759Z,99.90
2024-04-13T11:28:32.484Z,99.40
2024-04-13T11:31:00.470Z,99.90
2024-04-13T11:33:28.067Z,99.00
2024-04-13T11:35:58.597Z,99.90
2024-04-13T11:38:27.904Z,99.90
2024-04-13T11:40:55.644Z,98.60
2024-04-13T11:43:22.989Z,99.10
2024-04-13T11:45:50.958Z,98.30
2024-04-13T11:48:19.052Z,99.10
2024-04-13T11:50:48.066Z,99.40
2024-04-13T11:53:15.075Z,99.90
2024-04-13T11:55:41.932Z,99.90
2024-04-13T11:58:08.833Z,98.30
2024-04-13T12:00:35.869Z,96.70
2024-04-13T12:03:03.465Z,97.30
2024-04-13T12:05:31.264Z,96.60
2024-04-13T12:07:58.176Z,94.30
2024-04-13T12:12:52.470Z,93.60
2024-04-13T12:15:19.363Z,94.10
2024-04-13T12:20:15.677Z,93.40
2024-04-13T12:22:42.548Z,93.70
2024-04-13T12:25:09.492Z,93.80
2024-04-13T12:27:37.208Z,93.70
2024-04-13T12:30:05.124Z,93.80
2024-04-13T12:32:32.003Z,91.80
2024-04-13T12:34:58.936Z,92.30
2024-04-13T12:37:25.811Z,90.80
2024-04-13T12:39:52.834Z,91.60
2024-04-13T12:49:44.885Z,89.20
2024-04-13T12:52:11.798Z,90.50
2024-04-13T12:54:41.448Z,85.40
2024-04-13T12:57:09.040Z,86.00
2024-04-13T12:59:41.999Z,89.60
2024-04-13T13:02:08.966Z,83.00
2024-04-13T13:04:35.972Z,79.50
2024-04-13T13:07:04.871Z,77.30
2024-04-13T13:09:31.750Z,78.20
2024-04-13T13:11:58.812Z,80.90
2024-04-13T13:14:26.103Z,78.10
2024-04-13T13:16:53.083Z,74.50
2024-04-13T13:19:20.671Z,76.30
2024-04-13T13:21:50.494Z,81.00
2024-04-13T13:24:17.462Z,72.10
2024-04-13T13:26:44.383Z,71.90
2024-04-13T13:29:11.301Z,76.30
2024-04-13T13:31:38.206Z,77.90
2024-04-13T13:34:08.499Z,71.80
2024-04-13T13:36:36.023Z,73.80
2024-04-13T13:39:03.351Z,68.90
2024-04-13T13:41:32.383Z,70.70
2024-04-13T13:43:59.866Z,70.80
2024-04-13T13:46:27.050Z,69.80
2024-04-13T13:48:56.873Z,70.50
2024-04-13T13:51:24.575Z,68.20
2024-04-13T13:53:52.746Z,68.50
2024-04-13T13:56:19.616Z,69.30
2024-04-13T13:58:46.571Z,70.40
2024-04-13T14:01:13.589Z,69.10
2024-04-13T14:03:40.798Z,67.70
2024-04-13T14:06:08.168Z,69.90
2024-04-13T14:08:35.089Z,68.00
2024-04-13T14:11:02.053Z,65.80
2024-04-13T14:13:29.257Z,67.00
2024-04-13T14:15:56.373Z,65.20
2024-04-13T14:18:23.446Z,68.20
2024-04-13T14:20:50.390Z,65.90
2024-04-13T14:23:17.383Z,66.30
2024-04-13T14:25:47.480Z,67.70
2024-04-13T14:28:16.749Z,66.20
2024-04-13T14:30:44.177Z,67.80
2024-04-13T14:33:11.192Z,66.70
2024-04-13T14:35:38.587Z,67.80
2024-04-13T14:38:08.550Z,66.50
2024-04-13T14:40:35.739Z,69.50
2024-04-13T14:43:02.697Z,73.70
2024-04-13T14:50:24.262Z,80.30
2024-04-13T14:55:18.515Z,81.00
2024-04-13T15:02:41.887Z,83.40
2024-04-13T15:07:37.029Z,83.20
2024-04-13T15:10:05.154Z,84.20
2024-04-13T15:12:32.349Z,79.60
2024-04-13T15:14:59.380Z,80.00
2024-04-13T15:17:26.849Z,77.80
2024-04-13T15:19:53.903Z,73.00
2024-04-13T15:22:20.799Z,75.90
2024-04-13T15:24:47.934Z,72.10
2024-04-13T15:27:14.878Z,70.40
2024-04-13T15:29:41.666Z,73.20
2024-04-13T15:32:08.614Z,72.00
2024-04-13T15:34:36.827Z,71.30
2024-04-13T15:37:03.793Z,72.50
2024-04-13T15:39:30.767Z,72.70
2024-04-13T15:41:57.758Z,72.60
2024-04-13T15:44:24.718Z,75.10
2024-04-13T15:49:19.137Z,76.50
2024-04-13T15:51:46.067Z,76.80
2024-04-13T15:54:13.600Z,77.50
2024-04-13T16:11:30.330Z,80.70
2024-04-13T16:16:28.609Z,81.00
2024-04-13T16:26:17.760Z,85.00
2024-04-13T16:28:44.561Z,85.60
2024-04-13T16:33:38.818Z,84.90
2024-04-13T16:36:05.975Z,86.30
2024-04-13T16:38:35.246Z,86.70
2024-04-13T16:43:29.388Z,89.80
2024-04-13T16:45:56.334Z,91.50
2024-04-13T16:48:24.262Z,90.60
2024-04-13T16:50:58.414Z,91.30
2024-04-13T17:13:06.011Z,96.80
2024-04-13T17:15:32.956Z,97.10
2024-04-13T17:22:54.677Z,98.80
2024-04-13T17:32:43.673Z,99.90
2024-04-13T17:40:05.987Z,99.90
2024-04-13T17:42:32.938Z,99.90
2024-04-13T17:57:16.910Z,99.90
2024-04-13T17:59:43.710Z,99.90
2024-04-13T18:02:10.543Z,99.90
2024-04-13T18:11:59.886Z,99.90
2024-04-13T18:14:26.863Z,99.90
2024-04-13T18:21:49.775Z,99.90
2024-04-13T18:29:13.834Z,99.90
2024-04-13T18:34:11.054Z,99.90
2024-04-13T18:36:38.804Z,99.90
2024-04-13T19:03:47.535Z,99.90
2024-04-13T19:16:09.922Z,99.90
2024-04-13T19:18:38.421Z,99.90
2024-04-13T19:21:06.390Z,99.90
2024-04-13T19:26:02.034Z,99.90
2024-04-13T19:30:56.596Z,99.90
2024-04-13T19:33:24.401Z,99.90
2024-04-13T19:43:19.803Z,99.90
2024-04-13T20:00:36.159Z,99.90
2024-04-13T20:05:35.221Z,99.90
2024-04-13T20:08:02.518Z,99.90
2024-04-13T20:10:29.534Z,99.90
2024-04-13T20:15:42.721Z,99.90
2024-04-13T20:18:28.306Z,99.90
2024-04-13T20:20:55.360Z,99.90
2024-04-13T21:00:23.723Z,99.90
2024-04-13T21:02:50.680Z,99.90
2024-04-13T21:10:14.431Z,99.90
2024-04-13T21:12:41.392Z,99.90
2024-04-13T21:27:26.323Z,99.90
2024-04-13T21:47:08.338Z,99.90
2024-04-13T22:06:46.784Z,99.90
2024-04-13T22:38:46.245Z,99.90
2024-04-13T22:43:41.505Z,99.90
2024-04-13T22:46:08.404Z,99.90
2024-04-13T22:48:35.393Z,99.90
2024-04-13T22:51:02.326Z,99.90
2024-04-13T22:58:23.785Z,99.90
2024-04-13T23:00:54.534Z,99.90
2024-04-13T23:06:00.158Z,99.90
2024-04-13T23:08:27.816Z,99.90
2024-04-13T23:10:55.334Z,99.90
2024-04-13T23:13:22.322Z,99.90
2024-04-13T23:15:49.769Z,99.90
2024-04-13T23:18:16.818Z,99.90
2024-04-13T23:20:47.862Z,99.90
2024-04-13T23:23:15.418Z,99.90
2024-04-13T23:25:42.260Z,99.90
2024-04-13T23:28:09.321Z,99.90
2024-04-13T23:30:36.201Z,99.90
2024-04-13T23:33:03.234Z,99.90
2024-04-13T23:40:24.824Z,99.90
2024-04-13T23:42:51.939Z,99.90
2024-04-13T23:45:19.616Z,99.90
2024-04-13T23:47:46.540Z,99.90
2024-04-13T23:50:13.696Z,99.90
2024-04-13T23:52:40.621Z,99.90
2024-04-13T23:55:07.679Z,99.90
2024-04-13T23:57:37.693Z,99.90
